Time;durP1;ratioP1;P1;durP2;ratioP2;P2;SDS_P1;SDS_P2;PMS_P1;PMS_P2;Temp;Humidity;BMP_temperature;BMP_pressure;BME280_temperature;BME280_humidity;BME280_pressure;Samples;Min_cycle;Max_cycle;Signal;HPM_P1;HPM_P2
2023/06/10 00:02:08;;;;;;;8.75;5.60;;;24.30;47.60;;;;;;5034813;28;20029;-63
2023/06/10 00:04:36;;;;;;;8.10;5.47;;;24.20;47.60;;;;;;5030833;28;20084;-63
2023/06/10 00:07:08;;;;;;;8.85;5.97;;;24.20;47.60;;;;;;5036381;28;20045;-63
2023/06/10 00:09:36;;;;;;;10.43;5.55;;;24.20;47.70;;;;;;5028778;28;20040;-63
2023/06/10 00:12:07;;;;;;;9.90;6.47;;;24.20;47.70;;;;;;5051367;28;20029;-63
2023/06/10 00:14:33;;;;;;;10.52;6.18;;;24.20;47.70;;;;;;5031103;28;20409;-63
2023/06/10 00:16:59;;;;;;;8.80;5.90;;;24.20;47.70;;;;;;5035835;28;20040;-63
2023/06/10 00:19:29;;;;;;;11.00;6.40;;;24.10;47.70;;;;;;5032659;28;20033;-63
2023/06/10 00:21:56;;;;;;;8.05;5.60;;;24.10;47.70;;;;;;5025230;28;20045;-63
2023/06/10 00:24:22;;;;;;;8.93;5.72;;;24.10;47.70;;;;;;5033020;28;20037;-63
2023/06/10 00:26:48;;;;;;;10.55;5.82;;;24.10;47.60;;;;;;5022055;28;20034;-63
2023/06/10 00:29:14;;;;;;;8.93;5.50;;;24.00;47.50;;;;;;5032606;28;20017;-63
2023/06/10 00:31:40;;;;;;;9.43;6.05;;;24.00;47.50;;;;;;5034219;28;20107;-63
2023/06/10 00:34:07;;;;;;;8.90;5.50;;;24.00;47.50;;;;;;5029659;28;20022;-63
2023/06/10 00:36:33;;;;;;;9.27;5.82;;;23.90;47.40;;;;;;5032608;28;20470;-63
2023/06/10 00:38:58;;;;;;;10.75;5.57;;;24.00;47.50;;;;;;5032905;28;20045;-63
2023/06/10 00:41:26;;;;;;;13.15;5.43;;;23.90;47.40;;;;;;5034048;28;20037;-63
2023/06/10 00:43:52;;;;;;;9.02;5.47;;;23.90;47.30;;;;;;5027815;28;20029;-63
2023/06/10 00:46:18;;;;;;;8.68;5.88;;;23.90;47.20;;;;;;5024404;28;20017;-63
2023/06/10 00:48:45;;;;;;;8.68;5.15;;;23.90;47.10;;;;;;5018050;28;20117;-63
2023/06/10 00:51:11;;;;;;;8.18;5.72;;;23.90;47.10;;;;;;5033211;28;20043;-63
2023/06/10 00:53:40;;;;;;;8.32;5.50;;;23.80;47.10;;;;;;5031978;28;20084;-63
2023/06/10 00:56:06;;;;;;;8.65;5.43;;;23.80;47.00;;;;;;5026850;28;20026;-63
2023/06/10 00:58:32;;;;;;;10.30;6.20;;;23.80;47.00;;;;;;5028659;28;20436;-63
2023/06/10 01:00:58;;;;;;;9.07;5.50;;;23.70;46.80;;;;;;5025245;28;20030;-63
2023/06/10 01:03:27;;;;;;;10.18;5.95;;;23.70;46.90;;;;;;5034514;28;20091;-63
2023/06/10 01:06:11;;;;;;;8.00;5.40;;;23.70;46.80;;;;;;5010384;28;20037;-63
2023/06/10 01:09:21;;;;;;;10.00;5.95;;;23.70;46.80;;;;;;5030313;28;20056;-63
2023/06/10 01:12:09;;;;;;;9.35;5.28;;;23.70;46.80;;;;;;5028288;28;20037;-63
2023/06/10 01:14:44;;;;;;;8.88;5.47;;;23.60;46.70;;;;;;5031197;28;20080;-63
2023/06/10 01:17:10;;;;;;;7.85;5.10;;;23.60;46.60;;;;;;5029154;28;20477;-63
2023/06/10 01:19:36;;;;;;;8.83;5.30;;;23.60;46.60;;;;;;5033457;28;20021;-63
2023/06/10 01:22:03;;;;;;;10.90;4.88;;;23.50;46.50;;;;;;5026946;28;20029;-63
2023/06/10 01:24:32;;;;;;;9.07;5.18;;;23.50;46.50;;;;;;5031010;28;20022;-63
2023/06/10 01:27:01;;;;;;;9.00;5.15;;;23.50;46.50;;;;;;5032804;28;20021;-63
2023/06/10 01:29:44;;;;;;;9.18;5.40;;;23.50;46.60;;;;;;5032362;28;20025;-63
2023/06/10 01:32:26;;;;;;;10.10;5.65;;;23.50;46.50;;;;;;5033224;28;20454;-63
2023/06/10 01:34:54;;;;;;;7.87;5.40;;;23.50;46.50;;;;;;5015528;28;20029;-63
2023/06/10 01:37:24;;;;;;;8.82;5.22;;;23.40;46.50;;;;;;5026251;28;20372;-63
2023/06/10 01:39:51;;;;;;;8.03;5.23;;;23.40;46.60;;;;;;5032807;28;20030;-63
2023/06/10 01:42:18;;;;;;;9.50;5.43;;;23.40;46.50;;;;;;5026672;28;20064;-63
2023/06/10 01:44:43;;;;;;;9.13;5.47;;;23.40;46.50;;;;;;5034290;28;20025;-63
2023/06/10 01:47:09;;;;;;;8.77;5.22;;;23.40;46.50;;;;;;5031537;28;20359;-63
2023/06/10 01:49:35;;;;;;;9.27;5.63;;;23.30;46.40;;;;;;5025806;28;20438;-63
2023/06/10 01:52:01;;;;;;;8.55;4.82;;;23.30;46.40;;;;;;5031733;28;20024;-63
2023/06/10 01:54:27;;;;;;;9.30;5.47;;;23.30;46.50;;;;;;5028257;28;20021;-63
2023/06/10 01:56:52;;;;;;;8.98;4.75;;;23.20;46.50;;;;;;5032599;28;20034;-63
2023/06/10 01:59:18;;;;;;;9.02;4.78;;;23.20;46.50;;;;;;5024253;28;20017;-63
2023/06/10 02:01:44;;;;;;;8.25;4.93;;;23.20;46.60;;;;;;5016157;28;20025;-63
2023/06/10 02:04:10;;;;;;;9.23;5.45;;;23.10;46.70;;;;;;5035924;28;20361;-63
2023/06/10 02:06:37;;;;;;;8.20;4.78;;;23.10;46.70;;;;;;5027873;28;20037;-63
2023/06/10 02:09:03;;;;;;;7.78;4.70;;;23.10;46.80;;;;;;5030819;28;20017;-63
2023/06/10 02:11:29;;;;;;;7.38;4.47;;;23.10;46.80;;;;;;5029178;28;20040;-63
2023/06/10 02:13:55;;;;;;;8.98;5.35;;;23.10;46.90;;;;;;5015011;28;20030;-63
2023/06/10 02:16:21;;;;;;;9.13;4.88;;;23.10;47.00;;;;;;5028996;28;20040;-63
2023/06/10 02:18:48;;;;;;;9.55;4.85;;;23.00;47.00;;;;;;5033199;28;20036;-63
2023/06/10 02:21:14;;;;;;;9.52;5.07;;;23.00;47.20;;;;;;5019522;28;20025;-63
2023/06/10 02:23:40;;;;;;;8.63;4.90;;;23.00;47.90;;;;;;5033661;28;20033;-63
2023/06/10 02:26:06;;;;;;;11.60;5.45;;;23.00;47.40;;;;;;5033171;28;20076;-67
2023/06/10 02:28:32;;;;;;;10.40;5.40;;;23.00;47.50;;;;;;5027624;28;20076;-63
2023/06/10 02:30:59;;;;;;;8.45;5.03;;;22.90;47.60;;;;;;5024654;28;20025;-63
2023/06/10 02:33:25;;;;;;;10.88;5.13;;;22.90;47.70;;;;;;5026065;28;20084;-63
2023/06/10 02:35:51;;;;;;;7.88;4.60;;;22.80;47.90;;;;;;5026503;28;20038;-62
2023/06/10 02:38:18;;;;;;;9.73;5.32;;;22.90;48.00;;;;;;5029328;28;20355;-63
2023/06/10 02:40:43;;;;;;;9.93;5.28;;;22.80;48.10;;;;;;5021582;28;20371;-63
2023/06/10 02:43:11;;;;;;;10.25;5.25;;;22.80;48.20;;;;;;5026493;28;20026;-63
2023/06/10 02:45:36;;;;;;;9.77;5.75;;;22.80;48.40;;;;;;5013261;28;20037;-63
2023/06/10 02:48:03;;;;;;;9.23;5.25;;;22.80;48.50;;;;;;5028967;28;20030;-63
2023/06/10 02:50:31;;;;;;;9.02;4.88;;;22.80;49.10;;;;;;5028173;28;20348;-63
2023/06/10 02:53:16;;;;;;;8.73;4.95;;;22.70;48.60;;;;;;5028094;28;20053;-62
2023/06/10 02:55:48;;;;;;;8.35;4.90;;;22.70;48.70;;;;;;5028209;28;20112;-63
2023/06/10 02:58:16;;;;;;;9.88;4.95;;;22.70;49.20;;;;;;5030512;28;20508;-63
2023/06/10 03:00:43;;;;;;;9.05;5.10;;;22.60;49.00;;;;;;5012233;28;20431;-63
2023/06/10 03:03:10;;;;;;;9.63;4.95;;;22.60;49.10;;;;;;5029388;28;20021;-63
2023/06/10 03:05:44;;;;;;;9.43;5.15;;;22.60;49.20;;;;;;5013431;28;20071;-63
2023/06/10 03:08:10;;;;;;;10.43;5.35;;;22.60;49.30;;;;;;5014337;28;20030;-63
2023/06/10 03:10:40;;;;;;;9.07;4.68;;;22.60;49.40;;;;;;5029909;28;20120;-63
2023/06/10 03:13:06;;;;;;;8.63;5.18;;;22.60;49.40;;;;;;5027783;28;20493;-63
2023/06/10 03:15:33;;;;;;;10.15;5.03;;;22.60;49.50;;;;;;5028400;28;20029;-63
2023/06/10 03:18:00;;;;;;;9.80;5.20;;;22.60;49.60;;;;;;5030885;28;20091;-63
2023/06/10 03:20:27;;;;;;;10.63;5.10;;;22.60;49.70;;;;;;5031812;28;20029;-62
2023/06/10 03:22:53;;;;;;;9.00;4.72;;;22.50;49.70;;;;;;5020834;28;20022;-63
2023/06/10 03:25:20;;;;;;;9.15;4.90;;;22.50;49.80;;;;;;5031211;28;20026;-63
2023/06/10 03:27:50;;;;;;;8.55;4.68;;;22.50;49.90;;;;;;5030457;28;20027;-62
2023/06/10 03:30:18;;;;;;;8.90;4.68;;;22.50;50.00;;;;;;5016512;28;20423;-63
2023/06/10 03:32:45;;;;;;;9.40;4.97;;;22.50;50.00;;;;;;5031177;28;20069;-62
2023/06/10 03:35:15;;;;;;;8.75;4.90;;;22.40;50.10;;;;;;5032292;28;20029;-62
2023/06/10 03:37:41;;;;;;;9.05;5.13;;;22.40;50.20;;;;;;5023655;28;20029;-62
2023/06/10 03:40:08;;;;;;;9.45;4.65;;;22.40;50.30;;;;;;5031299;28;20037;-63
2023/06/10 03:42:35;;;;;;;10.63;5.60;;;22.40;50.40;;;;;;5024469;28;20026;-63
2023/06/10 03:45:02;;;;;;;9.27;4.82;;;22.40;50.50;;;;;;5025358;28;20447;-63
2023/06/10 03:47:35;;;;;;;8.63;5.53;;;22.30;50.50;;;;;;5030807;28;20123;-63
2023/06/10 03:50:07;;;;;;;9.65;6.07;;;22.30;50.60;;;;;;5035487;28;20481;-63
2023/06/10 03:52:35;;;;;;;10.05;5.32;;;22.30;50.70;;;;;;5033366;28;20030;-63
2023/06/10 03:55:00;;;;;;;11.55;4.93;;;22.30;50.90;;;;;;5035457;28;20033;-63
2023/06/10 03:57:27;;;;;;;10.52;5.35;;;22.20;50.90;;;;;;5033014;28;20029;-63
2023/06/10 03:59:52;;;;;;;9.07;5.07;;;22.20;51.00;;;;;;5027919;28;20021;-63
2023/06/10 04:02:19;;;;;;;9.98;5.30;;;22.20;51.00;;;;;;5034581;28;20017;-63
2023/06/10 04:04:45;;;;;;;9.45;5.07;;;22.20;51.10;;;;;;5031775;28;20022;-63
2023/06/10 04:07:11;;;;;;;13.32;5.53;;;22.20;51.80;;;;;;5035208;28;20057;-63
2023/06/10 04:09:37;;;;;;;8.73;5.03;;;22.20;51.20;;;;;;5027701;28;20108;-63
2023/06/10 04:12:06;;;;;;;10.55;5.20;;;22.20;51.30;;;;;;5016353;28;20119;-63
2023/06/10 04:14:32;;;;;;;8.77;4.53;;;22.20;51.40;;;;;;5016186;28;20021;-63
2023/06/10 04:16:58;;;;;;;8.77;5.07;;;22.20;51.50;;;;;;5032315;28;20048;-63
2023/06/10 04:19:24;;;;;;;8.50;4.80;;;22.10;51.50;;;;;;5033147;28;20053;-63
2023/06/10 04:21:51;;;;;;;9.35;5.40;;;22.10;51.60;;;;;;5027545;28;20064;-63
2023/06/10 04:24:17;;;;;;;9.32;5.55;;;22.10;51.80;;;;;;5031649;28;20025;-63
2023/06/10 04:26:44;;;;;;;9.90;5.13;;;22.10;51.80;;;;;;5026666;28;20053;-63
2023/06/10 04:29:11;;;;;;;10.07;5.30;;;22.10;52.50;;;;;;5025066;28;20034;-63
2023/06/10 04:31:36;;;;;;;10.05;5.63;;;22.10;52.00;;;;;;5033637;28;20029;-62
2023/06/10 04:34:02;;;;;;;9.40;5.30;;;22.10;52.10;;;;;;5028484;28;20352;-62
2023/06/10 04:36:29;;;;;;;9.57;5.40;;;22.10;52.20;;;;;;5011698;28;20033;-62
2023/06/10 04:38:55;;;;;;;10.60;5.43;;;22.10;52.20;;;;;;5023831;28;20041;-62
2023/06/10 04:41:22;;;;;;;9.15;5.05;;;22.10;52.20;;;;;;5026098;28;20056;-63
2023/06/10 04:43:48;;;;;;;8.77;4.93;;;22.10;52.40;;;;;;5026867;28;20127;-62
2023/06/10 04:46:14;;;;;;;9.45;5.60;;;22.10;52.50;;;;;;5029340;28;20030;-62
2023/06/10 04:48:42;;;;;;;8.85;5.05;;;22.10;52.60;;;;;;5026298;28;20052;-62
2023/06/10 04:51:08;;;;;;;9.45;5.20;;;22.10;52.60;;;;;;5018415;28;20068;-62
2023/06/10 04:53:34;;;;;;;11.20;5.22;;;22.10;52.60;;;;;;5011967;28;20326;-62
2023/06/10 04:56:00;;;;;;;9.93;5.15;;;22.10;52.60;;;;;;5036521;28;20104;-62
2023/06/10 04:58:25;;;;;;;9.70;5.35;;;22.10;52.60;;;;;;5035972;28;20056;-63
2023/06/10 05:00:51;;;;;;;9.45;4.90;;;22.10;52.70;;;;;;5035880;28;20033;-62
2023/06/10 05:03:17;;;;;;;9.85;5.60;;;22.20;52.70;;;;;;5018223;28;20091;-62
2023/06/10 05:05:43;;;;;;;10.52;4.97;;;22.20;52.70;;;;;;5034129;28;20029;-63
2023/06/10 05:08:08;;;;;;;8.35;5.07;;;22.20;52.80;;;;;;5035527;28;20033;-62
2023/06/10 05:10:34;;;;;;;9.27;5.03;;;22.30;52.70;;;;;;5035684;28;20410;-62
2023/06/10 05:13:00;;;;;;;9.25;5.50;;;22.30;52.70;;;;;;5036078;28;20044;-62
2023/06/10 05:15:26;;;;;;;10.68;5.25;;;22.40;52.70;;;;;;5022891;28;20029;-62
2023/06/10 05:17:52;;;;;;;9.95;4.97;;;22.50;52.60;;;;;;5027645;28;20083;-62
2023/06/10 05:20:18;;;;;;;9.90;5.25;;;22.60;52.60;;;;;;5026654;28;20116;-62
2023/06/10 05:22:44;;;;;;;8.90;5.50;;;22.70;52.40;;;;;;5026479;28;20029;-62
2023/06/10 05:25:10;;;;;;;11.52;5.32;;;22.80;52.20;;;;;;5027353;28;20028;-62
2023/06/10 05:27:36;;;;;;;9.95;5.30;;;22.90;52.00;;;;;;5027920;28;20033;-62
2023/06/10 05:30:03;;;;;;;9.32;5.53;;;23.00;51.90;;;;;;5027812;28;20335;-62
2023/06/10 05:32:30;;;;;;;9.80;5.15;;;23.10;51.70;;;;;;5028127;28;20120;-63
2023/06/10 05:34:56;;;;;;;9.23;5.28;;;23.10;51.70;;;;;;5028970;28;20278;-62
2023/06/10 05:37:21;;;;;;;11.18;5.18;;;23.10;51.60;;;;;;5024476;28;20060;-62
2023/06/10 05:39:47;;;;;;;8.15;4.75;;;23.20;51.60;;;;;;5028536;28;20487;-62
2023/06/10 05:42:13;;;;;;;9.25;5.45;;;23.20;51.60;;;;;;5024639;28;20118;-62
2023/06/10 05:44:39;;;;;;;9.30;5.20;;;23.30;51.70;;;;;;5024816;28;20069;-62
2023/06/10 05:47:05;;;;;;;8.65;5.20;;;23.30;51.60;;;;;;5018200;28;20040;-62
2023/06/10 05:49:30;;;;;;;9.77;5.03;;;23.40;51.50;;;;;;5025192;28;20462;-62
2023/06/10 05:51:58;;;;;;;8.20;4.82;;;23.50;51.50;;;;;;5030723;28;20034;-62
2023/06/10 05:54:25;;;;;;;8.38;5.05;;;23.60;51.50;;;;;;5033655;28;20033;-62
2023/06/10 05:56:51;;;;;;;11.05;4.75;;;23.60;51.40;;;;;;5033883;28;20039;-62
2023/06/10 05:59:17;;;;;;;9.93;5.25;;;23.70;51.20;;;;;;5024167;28;20032;-62
2023/06/10 06:01:42;;;;;;;9.77;5.13;;;23.80;51.10;;;;;;5025065;28;20446;-62
2023/06/10 06:04:08;;;;;;;10.52;5.32;;;23.80;51.00;;;;;;5024642;28;20506;-62
2023/06/10 06:06:35;;;;;;;9.10;5.22;;;23.90;51.00;;;;;;5023344;28;20520;-62
2023/06/10 06:09:01;;;;;;;9.15;5.55;;;23.90;50.80;;;;;;5021010;28;20017;-64
2023/06/10 06:11:27;;;;;;;9.00;4.57;;;24.00;50.70;;;;;;5022436;28;20469;-63
2023/06/10 06:13:52;;;;;;;9.60;5.45;;;24.10;50.60;;;;;;5023408;28;20060;-63
2023/06/10 06:16:18;;;;;;;9.57;4.60;;;24.10;50.30;;;;;;5023883;28;20036;-63
2023/06/10 06:18:44;;;;;;;8.80;4.72;;;24.20;50.30;;;;;;5021802;28;20072;-63
2023/06/10 06:21:10;;;;;;;9.93;5.63;;;24.30;50.20;;;;;;5023281;28;20124;-63
2023/06/10 06:23:35;;;;;;;8.68;5.05;;;24.50;50.10;;;;;;5025321;28;20052;-63
2023/06/10 06:26:01;;;;;;;8.98;4.93;;;24.50;49.80;;;;;;5024228;28;20032;-62
2023/06/10 06:28:29;;;;;;;9.65;4.55;;;24.60;49.80;;;;;;5027386;28;20014;-62
2023/06/10 06:30:57;;;;;;;8.77;5.20;;;24.60;49.60;;;;;;5024690;28;20060;-62
2023/06/10 06:33:23;;;;;;;9.90;5.55;;;24.70;49.40;;;;;;5025089;28;20034;-62
2023/06/10 06:35:49;;;;;;;9.85;4.82;;;24.80;49.20;;;;;;5027197;28;20040;-62
2023/06/10 06:38:15;;;;;;;9.20;4.40;;;24.90;49.10;;;;;;5026135;28;20044;-62
2023/06/10 06:40:43;;;;;;;8.38;4.85;;;25.00;49.10;;;;;;5026485;28;20597;-62
2023/06/10 06:43:08;;;;;;;8.32;4.68;;;25.10;49.00;;;;;;5027352;28;20105;-62
2023/06/10 06:46:02;;;;;;;7.78;4.35;;;25.20;48.70;;;;;;5022233;28;20030;-62
2023/06/10 06:48:28;;;;;;;8.95;5.35;;;25.30;48.30;;;;;;5025642;28;20049;-62
2023/06/10 06:50:56;;;;;;;9.13;5.18;;;25.40;48.10;;;;;;5032415;28;20030;-62
2023/06/10 06:53:22;;;;;;;8.98;4.80;;;25.50;48.00;;;;;;5025249;28;20040;-62
2023/06/10 06:55:47;;;;;;;11.25;5.38;;;25.60;48.00;;;;;;5025749;28;20067;-62
2023/06/10 06:58:13;;;;;;;8.95;4.57;;;25.70;47.90;;;;;;5025995;28;20026;-63
2023/06/10 07:00:39;;;;;;;7.78;4.57;;;25.80;47.70;;;;;;5024729;28;20045;-62
2023/06/10 07:03:04;;;;;;;8.25;3.90;;;25.90;47.70;;;;;;5024442;28;20036;-62
2023/06/10 07:05:30;;;;;;;9.90;4.88;;;26.00;47.40;;;;;;5025069;28;20021;-62
2023/06/10 07:07:56;;;;;;;8.88;4.35;;;26.10;47.10;;;;;;5023846;28;20612;-62
2023/06/10 07:10:24;;;;;;;7.50;4.38;;;26.20;46.80;;;;;;5030608;28;20033;-62
2023/06/10 07:12:50;;;;;;;10.95;4.68;;;26.30;46.60;;;;;;5017769;28;20025;-62
2023/06/10 07:15:16;;;;;;;8.88;4.78;;;26.40;46.50;;;;;;5024327;28;20029;-62
2023/06/10 07:17:42;;;;;;;8.13;4.30;;;26.60;46.40;;;;;;5023524;28;20139;-62
2023/06/10 07:20:09;;;;;;;9.80;4.55;;;26.70;46.10;;;;;;5026920;28;20476;-63
2023/06/10 07:22:35;;;;;;;7.28;4.18;;;26.80;45.90;;;;;;5030667;28;20032;-63
2023/06/10 07:25:01;;;;;;;8.45;4.47;;;27.00;45.80;;;;;;5029102;28;20038;-63
2023/06/10 07:27:27;;;;;;;8.15;4.53;;;27.10;45.70;;;;;;5028122;28;20037;-62
2023/06/10 07:29:52;;;;;;;7.18;4.28;;;27.30;45.50;;;;;;5031277;28;20032;-63
2023/06/10 07:32:22;;;;;;;8.32;4.18;;;27.40;45.20;;;;;;5028678;28;20021;-63
2023/06/10 07:34:47;;;;;;;10.07;4.40;;;27.50;45.00;;;;;;5032197;28;20029;-62
2023/06/10 07:37:13;;;;;;;8.38;4.45;;;27.60;44.80;;;;;;5029309;28;20025;-63
2023/06/10 07:39:39;;;;;;;9.50;4.93;;;27.70;44.60;;;;;;5031130;28;20030;-62
2023/06/10 07:42:06;;;;;;;8.27;4.20;;;27.90;44.20;;;;;;5031963;28;20026;-63
2023/06/10 07:44:31;;;;;;;8.05;4.43;;;28.00;44.00;;;;;;5014616;28;20057;-63
2023/06/10 07:46:58;;;;;;;7.88;4.07;;;28.10;43.80;;;;;;5029968;28;20057;-63
2023/06/10 07:49:24;;;;;;;7.32;4.25;;;28.10;43.70;;;;;;5029107;28;20021;-62
2023/06/10 07:51:50;;;;;;;8.38;3.38;;;28.20;43.70;;;;;;5028868;28;20029;-64
2023/06/10 07:54:16;;;;;;;10.30;4.07;;;28.30;43.70;;;;;;5029637;28;20540;-63
2023/06/10 07:56:42;;;;;;;8.27;4.53;;;28.50;43.70;;;;;;5030803;28;20025;-62
2023/06/10 07:59:07;;;;;;;9.13;4.18;;;28.60;43.50;;;;;;5025949;28;20060;-63
2023/06/10 08:01:35;;;;;;;7.70;3.83;;;28.70;43.30;;;;;;5028860;28;20025;-62
2023/06/10 08:04:01;;;;;;;7.57;4.03;;;28.80;43.20;;;;;;5028041;28;20017;-63
2023/06/10 08:06:27;;;;;;;8.32;4.38;;;28.90;43.00;;;;;;5029189;28;20037;-63
2023/06/10 08:08:53;;;;;;;7.68;4.00;;;29.00;42.60;;;;;;5028923;28;20598;-62
2023/06/10 08:11:19;;;;;;;7.72;3.78;;;29.10;42.50;;;;;;5027893;28;20059;-62
2023/06/10 08:13:44;;;;;;;7.45;3.72;;;29.10;42.40;;;;;;5029009;28;20325;-63
2023/06/10 08:16:10;;;;;;;6.97;3.90;;;29.20;42.30;;;;;;5030773;28;20025;-63
2023/06/10 08:18:36;;;;;;;7.57;3.88;;;29.20;42.10;;;;;;5030041;28;20033;-63
2023/06/10 08:21:01;;;;;;;6.82;3.90;;;29.20;42.10;;;;;;5028330;28;20026;-63
2023/06/10 08:23:27;;;;;;;7.05;4.32;;;29.30;42.20;;;;;;5029019;28;20433;-62
2023/06/10 08:25:53;;;;;;;7.18;3.80;;;29.50;42.10;;;;;;5028933;28;20033;-63
2023/06/10 08:28:19;;;;;;;8.48;3.40;;;29.50;41.90;;;;;;5032199;28;20017;-62
2023/06/10 08:30:45;;;;;;;8.68;3.95;;;29.60;41.70;;;;;;5029543;28;20086;-63
2023/06/10 08:33:11;;;;;;;7.03;3.85;;;29.70;41.70;;;;;;5023893;28;20029;-62
2023/06/10 08:35:36;;;;;;;8.45;3.55;;;29.80;41.60;;;;;;5033562;28;20036;-62
2023/06/10 08:38:02;;;;;;;10.93;4.70;;;29.90;41.50;;;;;;5036757;28;20346;-63
2023/06/10 08:40:28;;;;;;;7.85;4.40;;;30.00;41.20;;;;;;5035385;28;20445;-63
2023/06/10 08:43:06;;;;;;;7.05;3.72;;;30.10;40.90;;;;;;5035085;28;20048;-62
2023/06/10 08:45:36;;;;;;;7.65;3.80;;;30.10;40.50;;;;;;5035490;28;20037;-62
2023/06/10 08:48:09;;;;;;;8.23;4.15;;;30.10;40.40;;;;;;5036500;28;20434;-63
2023/06/10 08:50:38;;;;;;;7.18;3.90;;;30.20;40.60;;;;;;5035422;28;20446;-62
2023/06/10 08:53:07;;;;;;;7.80;4.50;;;30.20;40.70;;;;;;5033307;28;20040;-63
2023/06/10 08:55:38;;;;;;;7.45;3.90;;;30.40;40.60;;;;;;5023948;28;20025;-62
2023/06/10 08:58:04;;;;;;;7.68;3.55;;;30.50;40.40;;;;;;5035086;28;20117;-62
2023/06/10 09:00:31;;;;;;;7.57;4.15;;;30.60;40.50;;;;;;5034844;28;20120;-63
2023/06/10 09:02:58;;;;;;;6.68;3.60;;;30.70;40.50;;;;;;5034846;28;20095;-63
2023/06/10 09:05:24;;;;;;;7.03;4.05;;;30.80;40.10;;;;;;5033964;28;20025;-63
2023/06/10 09:07:52;;;;;;;10.90;3.90;;;30.90;39.80;;;;;;5034546;28;20127;-63
2023/06/10 09:10:18;;;;;;;7.72;3.33;;;31.00;39.70;;;;;;5035918;28;20117;-62
2023/06/10 09:12:44;;;;;;;8.80;3.70;;;31.00;39.50;;;;;;5035712;28;20095;-63
2023/06/10 09:15:12;;;;;;;7.50;4.50;;;31.10;39.40;;;;;;5032687;28;20446;-62
2023/06/10 09:17:40;;;;;;;7.63;3.50;;;31.30;39.50;;;;;;5035579;28;20366;-63
2023/06/10 09:20:07;;;;;;;7.03;3.83;;;31.40;39.20;;;;;;5035678;28;20044;-63
2023/06/10 09:22:33;;;;;;;7.95;3.70;;;31.40;39.00;;;;;;5035555;28;20112;-62
2023/06/10 09:25:08;;;;;;;7.22;3.60;;;31.50;38.80;;;;;;5035545;28;20022;-63
2023/06/10 09:27:55;;;;;;;6.70;3.50;;;31.60;38.70;;;;;;5032641;28;20105;-62
2023/06/10 09:30:31;;;;;;;7.22;3.85;;;31.70;38.40;;;;;;5023020;28;20033;-63
2023/06/10 09:32:59;;;;;;;7.40;4.38;;;31.70;38.20;;;;;;5035371;28;20087;-63
2023/06/10 09:35:26;;;;;;;7.53;3.58;;;31.80;38.40;;;;;;5034319;28;20315;-63
2023/06/10 09:37:53;;;;;;;8.82;3.58;;;31.80;38.20;;;;;;5033691;28;20371;-63
2023/06/10 09:40:19;;;;;;;9.85;3.65;;;31.90;38.20;;;;;;5034277;28;20030;-63
2023/06/10 09:42:45;;;;;;;5.97;3.25;;;32.00;38.10;;;;;;5035053;28;20128;-62
2023/06/10 09:45:11;;;;;;;7.15;3.50;;;32.00;37.90;;;;;;5034226;28;20026;-63
2023/06/10 09:47:37;;;;;;;6.25;3.30;;;32.00;38.00;;;;;;5028310;28;20053;-63
2023/06/10 09:50:03;;;;;;;8.23;3.80;;;32.20;38.00;;;;;;5029934;28;20493;-63
2023/06/10 09:52:29;;;;;;;6.68;3.78;;;32.20;37.60;;;;;;5031641;28;20032;-63
2023/06/10 09:55:02;;;;;;;7.22;3.42;;;32.20;37.40;;;;;;5031482;28;20028;-63
2023/06/10 09:57:35;;;;;;;7.28;3.58;;;32.30;37.10;;;;;;5030699;28;20324;-63
2023/06/10 10:00:12;;;;;;;7.85;3.38;;;32.40;37.00;;;;;;5031499;28;20018;-63
2023/06/10 10:02:48;;;;;;;6.57;3.65;;;32.40;36.70;;;;;;5031953;28;20041;-62
2023/06/10 10:05:21;;;;;;;6.85;3.70;;;32.50;36.50;;;;;;5031755;28;20036;-63
2023/06/10 10:07:48;;;;;;;7.53;3.50;;;32.60;36.60;;;;;;5016534;28;20049;-62
2023/06/10 10:10:15;;;;;;;7.40;3.65;;;32.60;36.60;;;;;;5031240;28;20386;-62
2023/06/10 10:12:46;;;;;;;7.17;3.40;;;32.70;36.60;;;;;;5030301;28;20478;-62
2023/06/10 10:15:12;;;;;;;8.00;3.88;;;32.80;36.20;;;;;;5032231;28;20327;-62
2023/06/10 10:17:45;;;;;;;6.07;3.33;;;32.80;36.00;;;;;;5033479;28;20065;-63
2023/06/10 10:20:15;;;;;;;8.07;3.75;;;32.80;35.80;;;;;;5028559;28;20037;-63
2023/06/10 10:22:43;;;;;;;9.02;4.03;;;32.70;35.50;;;;;;5030759;28;20034;-63
2023/06/10 10:25:16;;;;;;;7.28;3.28;;;32.80;35.50;;;;;;5031456;28;20021;-63
2023/06/10 10:27:52;;;;;;;7.60;3.67;;;32.90;35.40;;;;;;5023527;28;20069;-63
2023/06/10 10:30:20;;;;;;;6.53;3.50;;;32.90;35.20;;;;;;5030074;28;20037;-63
2023/06/10 10:32:55;;;;;;;7.00;3.17;;;32.90;35.00;;;;;;5026434;28;20075;-63
2023/06/10 10:35:23;;;;;;;7.13;3.50;;;33.00;35.00;;;;;;5026205;28;20124;-62
2023/06/10 10:37:53;;;;;;;8.30;3.78;;;33.10;34.90;;;;;;5012928;28;20411;-63
2023/06/10 10:40:20;;;;;;;6.63;3.58;;;33.10;34.40;;;;;;5028154;28;20426;-62
2023/06/10 10:42:49;;;;;;;6.75;3.33;;;33.00;34.30;;;;;;5031746;28;20373;-63
2023/06/10 10:45:15;;;;;;;7.70;3.30;;;33.10;34.40;;;;;;5024828;28;20045;-63
2023/06/10 10:47:42;;;;;;;8.55;3.28;;;33.10;34.10;;;;;;5030218;28;20450;-63
2023/06/10 10:50:19;;;;;;;6.43;3.35;;;33.10;34.30;;;;;;5030709;28;20134;-63
2023/06/10 10:52:56;;;;;;;6.47;3.10;;;33.20;33.80;;;;;;5032085;28;20028;-63
2023/06/10 10:55:23;;;;;;;5.90;2.83;;;33.20;33.50;;;;;;5031566;28;20026;-62
2023/06/10 10:57:57;;;;;;;6.50;3.45;;;33.20;33.40;;;;;;5029358;28;20462;-63
2023/06/10 11:00:30;;;;;;;7.30;3.35;;;33.20;33.20;;;;;;5033649;28;20061;-63
2023/06/10 11:03:09;;;;;;;6.45;2.90;;;33.20;33.30;;;;;;5035520;28;20033;-67
2023/06/10 11:05:47;;;;;;;8.80;3.70;;;33.20;33.20;;;;;;5026867;28;20029;-63
2023/06/10 11:08:14;;;;;;;6.35;3.22;;;33.30;33.50;;;;;;5029929;28;20052;-63
2023/06/10 11:10:41;;;;;;;6.70;3.53;;;33.40;33.50;;;;;;5036773;28;20112;-63
2023/06/10 11:13:14;;;;;;;7.47;3.30;;;33.40;33.10;;;;;;5034686;28;20026;-63
2023/06/10 11:15:49;;;;;;;6.95;3.20;;;33.50;33.00;;;;;;5034061;28;20061;-64
2023/06/10 11:18:29;;;;;;;5.88;2.78;;;33.50;32.90;;;;;;5037066;28;20124;-64
2023/06/10 11:21:05;;;;;;;6.63;3.57;;;33.50;32.70;;;;;;5037002;28;20442;-64
2023/06/10 11:23:33;;;;;;;6.22;3.00;;;33.60;32.70;;;;;;5033637;28;20033;-64
2023/06/10 11:26:34;;;;;;;5.88;2.88;;;33.60;32.70;;;;;;5032798;28;20034;-64
2023/06/10 11:28:59;;;;;;;8.18;3.63;;;33.70;32.50;;;;;;5023946;28;20506;-64
2023/06/10 11:31:29;;;;;;;6.18;3.05;;;33.70;32.50;;;;;;5030780;28;20124;-64
2023/06/10 11:34:04;;;;;;;7.77;3.53;;;33.70;32.10;;;;;;5031128;28;20061;-64
2023/06/10 11:36:31;;;;;;;7.05;3.30;;;33.70;32.10;;;;;;5029706;28;20037;-63
2023/06/10 11:39:05;;;;;;;7.63;3.63;;;33.70;32.10;;;;;;5029655;28;20033;-63
2023/06/10 11:41:33;;;;;;;8.77;3.53;;;33.70;31.90;;;;;;5035599;28;20022;-63
2023/06/10 11:44:03;;;;;;;6.63;3.35;;;33.60;32.30;;;;;;5032114;28;20063;-63
2023/06/10 11:46:29;;;;;;;5.28;2.80;;;33.50;31.70;;;;;;5035597;28;20354;-64
2023/06/10 11:48:57;;;;;;;7.28;3.45;;;33.50;31.70;;;;;;5032990;28;20040;-62
2023/06/10 11:51:27;;;;;;;6.85;3.70;;;33.50;31.70;;;;;;5030695;28;20026;-63
2023/06/10 11:53:53;;;;;;;6.40;3.58;;;33.40;31.80;;;;;;5027287;28;20029;-65
2023/06/10 11:56:25;;;;;;;6.78;3.47;;;33.40;32.10;;;;;;5028935;28;20053;-64
2023/06/10 11:59:04;;;;;;;8.18;3.58;;;33.30;32.30;;;;;;5033314;28;20029;-64
2023/06/10 12:01:30;;;;;;;8.52;3.92;;;33.30;32.20;;;;;;5026005;28;20438;-64
2023/06/10 12:03:58;;;;;;;6.72;3.80;;;33.30;32.30;;;;;;5033047;28;20509;-65
2023/06/10 12:06:24;;;;;;;6.22;3.40;;;33.20;32.10;;;;;;5027445;28;20040;-64
2023/06/10 12:08:49;;;;;;;9.52;3.97;;;33.10;32.10;;;;;;5034013;28;20462;-65
2023/06/10 12:11:15;;;;;;;8.48;3.42;;;33.00;31.90;;;;;;5032917;28;20104;-63
2023/06/10 12:13:49;;;;;;;7.70;3.50;;;33.00;31.90;;;;;;5027730;28;20443;-63
2023/06/10 12:16:16;;;;;;;8.50;3.65;;;32.80;31.70;;;;;;5029634;28;20025;-63
2023/06/10 12:18:44;;;;;;;7.30;3.70;;;32.70;31.80;;;;;;5033095;28;20476;-63
2023/06/10 12:21:20;;;;;;;5.75;3.10;;;32.60;31.90;;;;;;5035266;28;20041;-64
2023/06/10 12:24:09;;;;;;;7.38;3.60;;;32.50;32.00;;;;;;5031906;28;20033;-63
2023/06/10 12:26:39;;;;;;;6.93;3.30;;;32.40;32.20;;;;;;5032695;28;20072;-63
2023/06/10 12:29:25;;;;;;;6.28;3.08;;;32.40;32.40;;;;;;5029002;28;20026;-64
2023/06/10 12:32:05;;;;;;;6.85;3.25;;;32.30;32.40;;;;;;5023264;28;20156;-63
2023/06/10 12:34:36;;;;;;;5.72;3.33;;;32.30;32.60;;;;;;5023722;28;20060;-63
2023/06/10 12:37:04;;;;;;;7.57;3.72;;;32.10;32.50;;;;;;5022115;28;20056;-64
2023/06/10 12:39:31;;;;;;;6.20;3.33;;;32.10;32.50;;;;;;5032742;28;20065;-64
2023/06/10 12:41:57;;;;;;;6.90;3.70;;;32.00;32.50;;;;;;5036704;28;20081;-64
2023/06/10 12:44:38;;;;;;;7.40;3.63;;;32.00;32.70;;;;;;5031582;28;20025;-64
2023/06/10 12:47:09;;;;;;;6.40;3.58;;;32.00;32.70;;;;;;5032740;28;20083;-63
2023/06/10 12:49:36;;;;;;;8.38;4.00;;;31.90;32.90;;;;;;5022759;28;20030;-63
2023/06/10 12:52:03;;;;;;;6.63;3.60;;;31.90;33.00;;;;;;5033280;28;20030;-63